createdAt,value
2022-08-29T00:00:59.576Z,27.71
2022-08-29T00:01:59.555Z,27.72
2022-08-29T00:02:59.513Z,27.66
2022-08-29T00:03:59.549Z,27.69
2022-08-29T00:04:59.500Z,27.69
2022-08-29T00:05:59.494Z,27.68
2022-08-29T00:07:00.137Z,27.66
2022-08-29T00:07:59.470Z,27.70
2022-08-29T00:08:59.472Z,27.74
2022-08-29T00:09:59.461Z,27.69
2022-08-29T00:10:59.448Z,27.65
2022-08-29T00:11:59.445Z,27.68
2022-08-29T00:12:59.431Z,27.67
2022-08-29T00:13:59.432Z,27.69
2022-08-29T00:14:59.419Z,27.69
2022-08-29T00:15:59.409Z,27.67
2022-08-29T00:16:59.462Z,27.67
2022-08-29T00:17:59.387Z,27.73
2022-08-29T00:19:00.390Z,27.69
2022-08-29T00:19:59.393Z,27.71
2022-08-29T00:20:59.372Z,27.71
2022-08-29T00:21:59.381Z,27.65
2022-08-29T00:22:59.362Z,27.70
2022-08-29T00:23:59.343Z,27.66
2022-08-29T00:24:59.329Z,27.67
2022-08-29T00:26:00.327Z,27.70
2022-08-29T00:26:59.320Z,27.71
2022-08-29T00:27:59.321Z,27.68
2022-08-29T00:28:59.311Z,27.69
2022-08-29T00:29:59.305Z,27.68
2022-08-29T00:32:59.962Z,92.15
2022-08-29T00:33:59.946Z,92.14
2022-08-29T00:34:59.942Z,92.14
2022-08-29T00:35:59.935Z,92.12
2022-08-29T00:36:59.930Z,92.15
2022-08-29T00:37:59.927Z,92.12
2022-08-29T00:38:59.911Z,92.12
2022-08-29T00:39:59.955Z,92.11
2022-08-29T00:40:59.889Z,92.15
2022-08-29T00:41:59.881Z,92.15
2022-08-29T00:42:59.885Z,92.11
2022-08-29T00:43:59.869Z,92.14
2022-08-29T00:44:59.867Z,92.15
2022-08-29T00:45:59.897Z,92.19
2022-08-29T00:46:59.863Z,92.15
2022-08-29T00:47:59.832Z,92.14
2022-08-29T00:48:59.824Z,92.14
2022-08-29T00:49:59.817Z,92.14
2022-08-29T00:50:59.806Z,92.16
2022-08-29T00:51:59.805Z,92.14
2022-08-29T00:53:00.892Z,92.16
2022-08-29T00:54:00.880Z,92.18
2022-08-29T00:55:00.874Z,92.10
2022-08-29T00:56:00.868Z,92.13
2022-08-29T00:57:00.849Z,92.18
2022-08-29T00:58:00.869Z,92.12
2022-08-29T00:59:00.841Z,92.13
2022-08-29T01:00:00.833Z,91.01
2022-08-29T01:01:00.869Z,91.35
2022-08-29T01:02:00.881Z,91.65
2022-08-29T01:03:00.811Z,91.70
2022-08-29T01:04:00.800Z,91.85
2022-08-29T01:05:00.786Z,91.84
2022-08-29T01:06:00.778Z,91.87
2022-08-29T01:07:00.770Z,91.85
2022-08-29T01:08:00.778Z,91.87
2022-08-29T01:09:00.767Z,91.89
2022-08-29T01:10:00.744Z,91.90
2022-08-29T01:11:01.740Z,91.85
2022-08-29T01:12:00.731Z,91.70
2022-08-29T01:13:00.737Z,91.54
2022-08-29T01:14:00.715Z,91.58
2022-08-29T01:15:00.718Z,91.42
2022-08-29T01:16:00.750Z,91.74
2022-08-29T01:17:00.687Z,91.68
2022-08-29T01:18:00.689Z,91.89
2022-08-29T01:19:00.670Z,92.03
2022-08-29T01:20:00.680Z,92.05
2022-08-29T01:21:00.656Z,92.16
2022-08-29T01:22:00.656Z,92.12
2022-08-29T01:23:00.642Z,92.17
2022-08-29T01:24:00.648Z,92.13
2022-08-29T01:25:00.623Z,92.12
2022-08-29T01:26:00.610Z,92.12
2022-08-29T01:27:00.610Z,92.11
2022-08-29T01:28:00.604Z,92.12
2022-08-29T01:29:00.589Z,92.12
2022-08-29T01:30:01.577Z,92.13
2022-08-29T01:31:00.586Z,92.13
2022-08-29T01:32:00.603Z,92.15
2022-08-29T01:33:00.562Z,92.18
2022-08-29T01:34:00.554Z,92.12
2022-08-29T01:35:00.540Z,92.11
2022-08-29T01:36:00.532Z,92.11
2022-08-29T01:37:00.530Z,92.08
2022-08-29T01:38:00.515Z,92.12
2022-08-29T01:39:01.417Z,92.13
2022-08-29T01:40:01.494Z,92.12
2022-08-29T01:41:00.529Z,92.13
2022-08-29T01:42:00.492Z,92.13
2022-08-29T01:43:00.478Z,92.10
2022-08-29T01:44:00.487Z,92.09
2022-08-29T01:45:00.464Z,92.14
2022-08-29T01:46:00.512Z,92.16
2022-08-29T01:47:03.015Z,92.16
2022-08-29T01:48:03.548Z,92.14
2022-08-29T01:49:01.446Z,92.13
2022-08-29T01:50:00.428Z,92.16
2022-08-29T01:51:00.425Z,92.14
2022-08-29T01:52:00.410Z,92.16
2022-08-29T01:53:00.426Z,92.17
2022-08-29T01:54:00.383Z,92.12
2022-08-29T01:55:00.374Z,92.14
2022-08-29T01:56:00.375Z,92.10
2022-08-29T01:57:00.357Z,92.18
2022-08-29T01:58:00.358Z,92.10
2022-08-29T01:59:00.357Z,92.12
2022-08-29T02:00:00.340Z,92.17
2022-08-29T02:01:00.364Z,92.14
2022-08-29T02:02:00.373Z,92.14
2022-08-29T02:03:00.311Z,92.12
2022-08-29T02:04:00.297Z,92.12
2022-08-29T02:05:00.293Z,92.20
2022-08-29T02:06:00.279Z,92.16
2022-08-29T02:07:00.269Z,92.14
2022-08-29T02:08:00.265Z,92.11
2022-08-29T02:09:00.246Z,92.04
2022-08-29T02:10:01.260Z,91.97
2022-08-29T02:11:00.254Z,92.00
2022-08-29T02:12:00.238Z,92.10
2022-08-29T02:13:00.239Z,92.14
2022-08-29T02:14:00.216Z,92.12
2022-08-29T02:15:00.220Z,92.11
2022-08-29T02:16:00.256Z,91.89
2022-08-29T02:17:01.211Z,91.83
2022-08-29T02:18:00.192Z,91.94
2022-08-29T02:19:00.177Z,92.15
2022-08-29T02:20:00.205Z,92.09
2022-08-29T02:21:00.164Z,92.11
2022-08-29T02:22:00.165Z,92.04
2022-08-29T02:23:00.149Z,92.03
2022-08-29T02:24:11.256Z,91.86
2022-08-29T02:25:01.123Z,91.86
2022-08-29T02:26:00.931Z,91.82
2022-08-29T02:27:00.123Z,91.92
2022-08-29T02:28:00.103Z,92.09
2022-08-29T02:29:00.101Z,91.96
2022-08-29T02:30:01.093Z,92.08
2022-08-29T02:31:00.107Z,92.12
2022-08-29T02:32:00.920Z,92.14
2022-08-29T02:33:00.077Z,92.05
2022-08-29T02:34:00.058Z,91.88
2022-08-29T02:35:00.083Z,91.91
2022-08-29T02:36:00.055Z,91.85
2022-08-29T02:37:00.037Z,91.92
2022-08-29T02:38:00.033Z,91.68
2022-08-29T02:39:00.018Z,91.52
2022-08-29T02:40:00.048Z,91.75
2022-08-29T02:41:00.007Z,91.84
2022-08-29T02:42:00.007Z,91.86
2022-08-29T02:42:59.997Z,91.78
2022-08-29T02:43:59.972Z,91.76
2022-08-29T02:44:59.969Z,91.85
2022-08-29T02:45:59.957Z,91.82
2022-08-29T02:47:00.031Z,91.89
2022-08-29T02:47:59.940Z,91.87
2022-08-29T02:49:01.314Z,91.84
2022-08-29T02:49:59.981Z,91.85
2022-08-29T02:50:59.915Z,91.85
2022-08-29T02:51:59.934Z,91.85
2022-08-29T02:52:59.915Z,91.89
2022-08-29T02:53:59.892Z,91.83
2022-08-29T02:54:59.909Z,91.83
2022-08-29T02:55:59.873Z,91.87
2022-08-29T02:56:59.866Z,91.88
2022-08-29T02:57:59.866Z,91.91
2022-08-29T02:58:59.887Z,91.94
2022-08-29T02:59:59.857Z,91.91
2022-08-29T03:00:59.920Z,91.81
2022-08-29T03:01:59.921Z,91.85
2022-08-29T03:02:59.833Z,91.84
2022-08-29T03:03:59.855Z,91.87
2022-08-29T03:04:59.800Z,91.86
2022-08-29T03:05:59.809Z,91.82
2022-08-29T03:06:59.806Z,91.85
2022-08-29T03:07:59.778Z,91.82
2022-08-29T03:08:59.785Z,91.96
2022-08-29T03:09:59.758Z,92.12
2022-08-29T03:10:59.766Z,92.11
2022-08-29T03:11:59.743Z,92.14
2022-08-29T03:12:59.738Z,92.12
2022-08-29T03:13:59.734Z,92.12
2022-08-29T03:14:59.721Z,92.16
2022-08-29T03:15:59.799Z,92.14
2022-08-29T03:16:59.703Z,92.10
2022-08-29T03:17:59.702Z,92.13
2022-08-29T03:19:00.434Z,92.10
2022-08-29T03:19:59.685Z,92.09
2022-08-29T03:20:59.684Z,92.17
2022-08-29T03:21:59.675Z,92.16
2022-08-29T03:22:59.664Z,92.13
2022-08-29T03:23:59.652Z,92.15
2022-08-29T03:24:59.641Z,92.14
2022-08-29T03:25:59.636Z,92.15
2022-08-29T03:26:59.626Z,92.13
2022-08-29T03:27:59.644Z,92.14
2022-08-29T03:28:59.616Z,92.12
2022-08-29T03:29:59.603Z,92.11
2022-08-29T03:30:59.673Z,67.51
2022-08-29T03:32:00.440Z,57.18
2022-08-29T03:32:59.591Z,52.43
2022-08-29T03:33:59.573Z,51.15
2022-08-29T03:34:59.563Z,55.89
2022-08-29T03:35:59.549Z,54.99
2022-08-29T03:36:59.576Z,55.18
2022-08-29T03:37:59.539Z,56.15
2022-08-29T03:38:59.521Z,58.93
2022-08-29T03:39:59.572Z,51.66
2022-08-29T03:40:59.520Z,51.66
2022-08-29T03:41:59.500Z,51.35
2022-08-29T03:42:59.493Z,53.30
2022-08-29T03:43:59.480Z,50.52
2022-08-29T03:44:59.533Z,49.34
2022-08-29T03:45:59.464Z,50.28
2022-08-29T03:46:59.542Z,51.25
2022-08-29T03:47:59.449Z,53.02
2022-08-29T03:48:59.444Z,53.41
2022-08-29T03:49:59.441Z,51.66
2022-08-29T03:50:59.421Z,56.96
2022-08-29T03:51:59.419Z,54.17
2022-08-29T03:52:59.453Z,52.57
2022-08-29T03:53:59.406Z,41.80
2022-08-29T03:54:59.405Z,27.73
2022-08-29T03:55:59.390Z,27.70
2022-08-29T03:56:59.374Z,27.70
2022-08-29T03:57:59.376Z,27.68
2022-08-29T03:58:59.368Z,27.68
2022-08-29T03:59:59.373Z,27.67
2022-08-29T04:00:59.367Z,27.67
2022-08-29T04:01:59.372Z,27.72
2022-08-29T04:02:59.391Z,27.68
2022-08-29T04:03:59.320Z,27.68
2022-08-29T04:04:59.323Z,27.67
2022-08-29T04:05:59.306Z,27.66
2022-08-29T04:06:59.303Z,27.65
2022-08-29T04:07:59.293Z,27.64
2022-08-29T04:08:59.290Z,27.65
2022-08-29T04:09:59.283Z,27.68
2022-08-29T04:10:59.271Z,27.67
2022-08-29T04:11:59.277Z,27.67
2022-08-29T04:12:59.263Z,27.69
2022-08-29T04:13:59.872Z,27.70
2022-08-29T04:14:59.234Z,27.66
2022-08-29T04:15:59.256Z,27.68
2022-08-29T04:16:59.978Z,27.65
2022-08-29T04:17:59.208Z,27.68
2022-08-29T04:18:59.477Z,27.69
2022-08-29T04:22:05.465Z,27.67
2022-08-29T04:23:05.457Z,27.68
2022-08-29T04:24:05.441Z,27.67
2022-08-29T04:25:05.434Z,27.68
2022-08-29T04:26:28.944Z,27.68
2022-08-29T04:27:06.424Z,27.66
2022-08-29T04:28:05.411Z,27.72
2022-08-29T04:29:05.401Z,27.68
2022-08-29T04:30:05.400Z,27.67
2022-08-29T04:31:05.413Z,27.68
2022-08-29T04:32:05.381Z,27.69
2022-08-29T04:33:05.373Z,27.65
2022-08-29T04:34:05.360Z,27.68
2022-08-29T04:35:05.361Z,27.68
2022-08-29T04:36:05.339Z,27.69
2022-08-29T04:37:05.341Z,27.68
2022-08-29T04:38:05.330Z,27.64
2022-08-29T04:39:05.317Z,27.65
2022-08-29T04:40:05.375Z,27.65
2022-08-29T04:41:05.300Z,27.67
2022-08-29T04:42:06.385Z,27.67
2022-08-29T04:43:06.387Z,27.66
2022-08-29T04:44:06.375Z,27.70
2022-08-29T04:45:06.546Z,27.71
2022-08-29T04:46:07.873Z,27.68
2022-08-29T04:47:07.351Z,27.66
2022-08-29T04:48:06.349Z,27.71
2022-08-29T04:49:06.354Z,27.69
2022-08-29T04:50:06.326Z,27.67
2022-08-29T04:51:06.321Z,27.69
2022-08-29T04:52:06.318Z,27.70
2022-08-29T04:53:06.314Z,27.67
2022-08-29T04:54:06.308Z,27.69
2022-08-29T04:55:06.281Z,27.68
2022-08-29T04:56:06.296Z,27.68
2022-08-29T04:57:06.268Z,27.67
2022-08-29T04:58:06.275Z,27.66
2022-08-29T04:59:06.253Z,27.63
2022-08-29T05:00:06.256Z,27.66
2022-08-29T05:01:06.243Z,27.66
2022-08-29T05:02:06.288Z,27.67
2022-08-29T05:03:06.297Z,27.70
2022-08-29T05:04:06.221Z,27.66
2022-08-29T05:05:06.910Z,27.67
2022-08-29T05:06:06.210Z,27.72
2022-08-29T05:07:06.203Z,27.70
2022-08-29T05:08:06.203Z,27.69
2022-08-29T05:09:06.168Z,27.65
2022-08-29T05:10:06.161Z,27.73
2022-08-29T05:11:06.149Z,27.68
2022-08-29T05:12:10.144Z,27.65
2022-08-29T05:13:07.154Z,27.70
2022-08-29T05:14:06.131Z,27.68
2022-08-29T05:15:06.120Z,27.68
2022-08-29T05:16:06.191Z,27.72
2022-08-29T05:17:06.106Z,27.72
2022-08-29T05:18:06.088Z,27.74
2022-08-29T05:19:06.093Z,27.72
2022-08-29T05:20:06.074Z,27.69
2022-08-29T05:21:06.066Z,27.71
2022-08-29T05:22:06.058Z,27.67
2022-08-29T05:23:06.054Z,27.70
2022-08-29T05:24:06.041Z,27.67
2022-08-29T05:25:06.027Z,27.71
2022-08-29T05:26:06.033Z,27.74
2022-08-29T05:27:06.041Z,27.66
2022-08-29T05:28:06.063Z,27.68
2022-08-29T05:29:08.390Z,27.70
2022-08-29T05:30:05.993Z,27.71
2022-08-29T05:31:06.027Z,27.71
2022-08-29T05:32:05.985Z,27.67
2022-08-29T05:33:05.975Z,27.65
2022-08-29T05:34:21.906Z,27.68
2022-08-29T05:35:06.948Z,27.70
2022-08-29T05:36:05.945Z,27.71
2022-08-29T05:37:05.937Z,27.69
2022-08-29T05:38:09.028Z,37.70
2022-08-29T05:39:06.927Z,90.16
2022-08-29T05:40:05.972Z,90.20
2022-08-29T05:41:05.910Z,90.03
2022-08-29T05:42:05.904Z,90.03
2022-08-29T05:43:05.891Z,89.92
2022-08-29T05:44:05.887Z,90.07
2022-08-29T05:45:05.889Z,90.28
2022-08-29T05:46:05.905Z,90.56
2022-08-29T05:47:05.852Z,90.58
2022-08-29T05:48:06.850Z,90.64
2022-08-29T05:49:05.845Z,90.80
2022-08-29T05:50:05.844Z,90.81
2022-08-29T05:51:05.817Z,90.82
2022-08-29T05:52:05.817Z,90.82
2022-08-29T05:53:05.803Z,90.76
2022-08-29T05:54:05.794Z,90.82
2022-08-29T05:55:05.791Z,90.84
2022-08-29T05:56:05.775Z,90.81
2022-08-29T05:57:05.809Z,90.85
2022-08-29T05:58:05.772Z,90.81
2022-08-29T05:59:05.764Z,90.83
2022-08-29T06:00:05.742Z,90.80
2022-08-29T06:01:05.730Z,90.85
2022-08-29T06:02:05.730Z,90.82
2022-08-29T06:03:05.856Z,90.80
2022-08-29T06:04:05.842Z,90.57
2022-08-29T06:05:05.704Z,90.32
2022-08-29T06:06:05.697Z,90.41
2022-08-29T06:07:05.705Z,90.55
2022-08-29T06:08:05.675Z,90.60
2022-08-29T06:09:05.678Z,90.55
2022-08-29T06:10:05.655Z,90.58
2022-08-29T06:11:06.741Z,90.56
2022-08-29T06:12:05.659Z,90.26
2022-08-29T06:13:06.565Z,90.17
2022-08-29T06:14:05.630Z,90.08
2022-08-29T06:15:05.630Z,90.06
2022-08-29T06:16:05.708Z,90.08
2022-08-29T06:17:05.615Z,90.13
2022-08-29T06:18:05.620Z,90.34
2022-08-29T06:19:05.584Z,90.34
2022-08-29T06:20:05.591Z,90.58
2022-08-29T06:21:05.576Z,90.57
2022-08-29T06:22:09.608Z,90.60
2022-08-29T06:23:05.557Z,90.59
2022-08-29T06:24:05.555Z,90.58
2022-08-29T06:25:28.065Z,90.58
2022-08-29T06:26:07.541Z,90.61
2022-08-29T06:27:05.524Z,90.61
2022-08-29T06:28:05.524Z,90.55
2022-08-29T06:29:05.510Z,90.36
2022-08-29T06:30:05.497Z,90.35
2022-08-29T06:31:05.575Z,90.37
2022-08-29T06:32:05.479Z,90.39
2022-08-29T06:33:05.490Z,90.39
2022-08-29T06:34:05.505Z,90.37
2022-08-29T06:35:05.585Z,90.30
2022-08-29T06:36:05.545Z,90.18
2022-08-29T06:37:05.474Z,90.13
2022-08-29T06:38:05.445Z,90.17
2022-08-29T06:39:05.454Z,90.16
2022-08-29T06:40:07.422Z,90.18
2022-08-29T06:41:05.422Z,90.37
2022-08-29T06:42:05.412Z,90.41
2022-08-29T06:43:05.403Z,90.55
2022-08-29T06:44:05.399Z,90.61
2022-08-29T06:45:05.382Z,90.61
2022-08-29T06:46:05.386Z,90.64
2022-08-29T06:47:05.374Z,90.82
2022-08-29T06:48:05.366Z,90.88
2022-08-29T06:49:05.374Z,90.87
2022-08-29T06:50:05.348Z,90.87
2022-08-29T06:51:05.337Z,90.83
2022-08-29T06:52:05.341Z,90.88
2022-08-29T06:53:26.472Z,90.85
2022-08-29T06:54:07.377Z,90.85
2022-08-29T06:55:05.305Z,90.86
2022-08-29T06:56:05.443Z,90.85
2022-08-29T06:57:05.287Z,90.89
2022-08-29T06:58:05.280Z,90.84
2022-08-29T06:59:05.285Z,90.88
2022-08-29T07:00:12.467Z,90.91
2022-08-29T07:01:06.345Z,90.87
2022-08-29T07:02:05.950Z,90.85
2022-08-29T07:03:05.295Z,90.87
2022-08-29T07:04:05.243Z,90.87
2022-08-29T07:05:06.245Z,90.87
2022-08-29T07:06:05.225Z,90.87
2022-08-29T07:07:05.234Z,90.84
2022-08-29T07:08:05.219Z,90.86
2022-08-29T07:09:05.222Z,90.89
2022-08-29T07:10:05.199Z,90.84
2022-08-29T07:11:05.185Z,90.81
2022-08-29T07:12:05.178Z,90.87
2022-08-29T07:13:05.195Z,90.86
2022-08-29T07:14:05.171Z,90.81
2022-08-29T07:15:05.165Z,90.80
2022-08-29T07:16:05.187Z,90.79
2022-08-29T07:17:05.144Z,90.61
2022-08-29T07:18:05.175Z,90.58
2022-08-29T07:19:05.118Z,90.56
2022-08-29T07:20:05.111Z,90.53
2022-08-29T07:21:05.113Z,90.57
2022-08-29T07:22:05.108Z,90.62
2022-08-29T07:23:05.087Z,90.60
2022-08-29T07:24:05.088Z,90.66
2022-08-29T07:25:05.091Z,90.51
2022-08-29T07:26:05.063Z,90.48
2022-08-29T07:27:05.065Z,90.58
2022-08-29T07:28:05.067Z,90.53
2022-08-29T07:29:05.060Z,90.35
2022-08-29T07:30:05.047Z,90.10
2022-08-29T07:31:05.107Z,90.08
2022-08-29T07:32:05.027Z,90.09
2022-08-29T07:33:05.023Z,90.08
2022-08-29T07:34:05.050Z,90.11
2022-08-29T07:35:04.994Z,90.09
2022-08-29T07:36:04.997Z,90.11
2022-08-29T07:37:05.836Z,90.30
2022-08-29T07:38:05.993Z,90.34
2022-08-29T07:39:04.964Z,90.42
2022-08-29T07:40:04.999Z,90.57
2022-08-29T07:41:04.963Z,90.58
2022-08-29T07:42:04.949Z,90.58
2022-08-29T07:43:04.939Z,90.61
2022-08-29T07:44:04.928Z,90.58
2022-08-29T07:45:04.924Z,90.64
2022-08-29T07:46:05.532Z,90.61
2022-08-29T07:47:04.904Z,90.59
2022-08-29T07:48:04.925Z,90.60
2022-08-29T07:49:05.892Z,90.64
2022-08-29T07:50:04.893Z,90.58
2022-08-29T07:51:08.431Z,90.57
2022-08-29T07:52:06.872Z,90.62
2022-08-29T07:53:04.871Z,90.74
2022-08-29T07:54:04.855Z,90.62
2022-08-29T07:55:04.851Z,90.59
2022-08-29T07:56:04.831Z,90.59
2022-08-29T07:57:04.844Z,90.57
2022-08-29T07:58:04.824Z,90.55
2022-08-29T07:59:04.811Z,90.33
2022-08-29T08:00:05.389Z,90.37
2022-08-29T08:01:04.889Z,90.26
2022-08-29T08:02:04.869Z,90.27
2022-08-29T08:03:04.886Z,90.34
2022-08-29T08:04:04.769Z,90.49
2022-08-29T08:05:06.916Z,90.57
2022-08-29T08:06:07.083Z,90.52
2022-08-29T08:07:04.741Z,90.60
2022-08-29T08:08:09.025Z,90.61
2022-08-29T08:09:06.744Z,90.67
2022-08-29T08:10:04.727Z,90.83
2022-08-29T08:11:04.721Z,90.87
2022-08-29T08:12:08.171Z,90.98
2022-08-29T08:13:05.728Z,91.00
2022-08-29T08:14:04.700Z,90.86
2022-08-29T08:15:04.678Z,91.00
2022-08-29T08:16:04.691Z,91.15
2022-08-29T08:17:04.688Z,91.12
2022-08-29T08:18:04.669Z,91.16
2022-08-29T08:19:04.648Z,91.14
2022-08-29T08:20:04.638Z,91.14
2022-08-29T08:21:04.644Z,91.13
2022-08-29T08:22:04.623Z,91.12
2022-08-29T08:23:04.675Z,91.11
2022-08-29T08:24:04.617Z,91.13
2022-08-29T08:25:04.596Z,91.15
2022-08-29T08:26:04.593Z,91.14
2022-08-29T08:27:05.585Z,91.11
2022-08-29T08:28:04.579Z,91.15
2022-08-29T08:29:04.592Z,91.21
2022-08-29T08:30:04.565Z,91.22
2022-08-29T08:31:06.274Z,91.13
2022-08-29T08:32:05.542Z,91.13
2022-08-29T08:33:04.532Z,91.11
2022-08-29T08:34:04.531Z,91.12
2022-08-29T08:35:04.520Z,90.98
2022-08-29T08:36:04.512Z,90.87
2022-08-29T08:37:04.503Z,90.84
2022-08-29T08:38:04.494Z,90.82
2022-08-29T08:39:04.486Z,90.84
2022-08-29T08:40:05.563Z,90.84
2022-08-29T08:41:04.989Z,90.68
2022-08-29T08:42:04.476Z,90.60
2022-08-29T08:43:04.446Z,90.71
2022-08-29T08:44:04.447Z,90.82
2022-08-29T08:45:04.437Z,90.69
2022-08-29T08:46:04.475Z,90.76
2022-08-29T08:47:04.435Z,90.60
2022-08-29T08:48:04.419Z,90.59
2022-08-29T08:49:04.408Z,90.58
2022-08-29T08:50:04.389Z,90.43
2022-08-29T08:51:04.381Z,90.41
2022-08-29T08:52:04.376Z,90.58
2022-08-29T08:53:04.389Z,90.64
2022-08-29T08:54:04.360Z,90.71
2022-08-29T08:55:04.358Z,90.73
2022-08-29T08:56:04.343Z,90.62
2022-08-29T08:57:04.357Z,90.56
2022-08-29T08:58:04.327Z,90.64
2022-08-29T08:59:04.315Z,90.58
2022-08-29T09:00:04.320Z,90.59
2022-08-29T09:01:04.378Z,90.59
2022-08-29T09:02:06.753Z,90.38
2022-08-29T09:03:04.284Z,90.26
2022-08-29T09:04:04.278Z,90.27
2022-08-29T09:05:04.266Z,90.17
2022-08-29T09:06:04.263Z,90.32
2022-08-29T09:07:04.266Z,90.32
2022-08-29T09:08:04.244Z,90.38
2022-08-29T09:09:04.235Z,90.52
2022-08-29T09:10:04.223Z,90.58
2022-08-29T09:11:04.220Z,90.53
2022-08-29T09:12:04.219Z,90.57
2022-08-29T09:13:04.207Z,90.58
2022-08-29T09:14:04.192Z,90.60
2022-08-29T09:15:04.175Z,90.67
2022-08-29T09:16:04.193Z,90.64
2022-08-29T09:17:04.163Z,90.64
2022-08-29T09:18:04.161Z,90.58
2022-08-29T09:19:04.148Z,90.63
2022-08-29T09:20:04.136Z,90.64
2022-08-29T09:21:10.075Z,90.81
2022-08-29T09:22:05.115Z,90.64
2022-08-29T09:23:04.118Z,90.44
2022-08-29T09:24:04.104Z,90.59
2022-08-29T09:25:04.101Z,90.76
2022-08-29T09:26:04.097Z,90.86
2022-08-29T09:27:04.081Z,90.92
2022-08-29T09:28:04.090Z,91.04
2022-08-29T09:29:04.069Z,91.14
2022-08-29T09:30:04.065Z,91.19
2022-08-29T09:31:04.061Z,91.04
2022-08-29T09:32:04.103Z,91.12
2022-08-29T09:33:04.183Z,91.16
2022-08-29T09:34:04.089Z,91.07
2022-08-29T09:35:08.794Z,90.98
2022-08-29T09:36:05.021Z,91.01
2022-08-29T09:37:04.007Z,90.83
2022-08-29T09:38:04.001Z,90.60
2022-08-29T09:39:03.991Z,90.54
2022-08-29T09:40:04.029Z,90.25
2022-08-29T09:41:03.981Z,90.12
2022-08-29T09:42:03.958Z,89.75
2022-08-29T09:43:03.951Z,89.65
2022-08-29T09:44:03.949Z,89.71
2022-08-29T09:45:03.947Z,89.88
2022-08-29T09:46:04.014Z,90.00
2022-08-29T09:47:03.931Z,90.11
2022-08-29T09:48:03.916Z,90.12
2022-08-29T09:49:03.907Z,90.31
2022-08-29T09:50:03.918Z,90.59
2022-08-29T09:51:04.518Z,90.61
2022-08-29T09:52:03.913Z,90.59
2022-08-29T09:53:05.754Z,90.69
2022-08-29T09:54:04.877Z,90.87
2022-08-29T09:55:03.900Z,90.89
2022-08-29T09:56:03.845Z,90.85
2022-08-29T09:57:03.876Z,90.87
2022-08-29T09:58:03.843Z,90.96
2022-08-29T09:59:03.829Z,90.88
2022-08-29T10:00:03.815Z,91.06
2022-08-29T10:01:04.486Z,91.13
2022-08-29T10:02:03.881Z,91.16
2022-08-29T10:03:03.825Z,91.14
2022-08-29T10:04:03.826Z,91.14
2022-08-29T10:05:03.781Z,91.15
2022-08-29T10:06:03.769Z,91.15
2022-08-29T10:07:03.819Z,91.15
2022-08-29T10:08:36.956Z,91.09
2022-08-29T10:09:03.737Z,91.20
2022-08-29T10:10:04.744Z,91.21
2022-08-29T10:11:03.727Z,91.14
2022-08-29T10:12:03.727Z,91.16
2022-08-29T10:13:03.707Z,91.18
2022-08-29T10:14:03.709Z,91.15
2022-08-29T10:15:03.720Z,91.13
2022-08-29T10:16:03.708Z,91.14
2022-08-29T10:17:03.737Z,91.16
2022-08-29T10:18:03.669Z,91.17
2022-08-29T10:19:03.664Z,91.17
2022-08-29T10:20:03.673Z,91.18
2022-08-29T10:21:03.656Z,91.16
2022-08-29T10:22:03.640Z,91.12
2022-08-29T10:23:03.627Z,91.18
2022-08-29T10:24:03.653Z,91.13
2022-08-29T10:25:03.613Z,91.12
2022-08-29T10:26:03.602Z,90.98
2022-08-29T10:27:03.611Z,90.87
2022-08-29T10:28:03.597Z,90.96
2022-08-29T10:29:03.593Z,91.06
2022-08-29T10:30:03.593Z,90.95
2022-08-29T10:31:03.561Z,91.08
2022-08-29T10:32:03.590Z,92.52
2022-08-29T10:33:03.549Z,92.94
2022-08-29T10:34:03.539Z,92.85
2022-08-29T10:35:03.538Z,92.82
2022-08-29T10:36:03.545Z,92.86
2022-08-29T10:37:03.515Z,92.88
2022-08-29T10:38:03.531Z,92.84
2022-08-29T10:39:03.504Z,92.89
2022-08-29T10:40:03.567Z,92.91
2022-08-29T10:41:03.483Z,92.88
2022-08-29T10:42:06.087Z,92.85
2022-08-29T10:43:03.483Z,92.84
2022-08-29T10:44:03.545Z,92.85
2022-08-29T10:45:03.462Z,92.89
2022-08-29T10:46:03.516Z,92.86
2022-08-29T10:47:03.444Z,92.89
2022-08-29T10:48:03.428Z,92.90
2022-08-29T10:49:03.422Z,92.90
2022-08-29T10:50:03.447Z,92.87
2022-08-29T10:51:03.409Z,92.88
2022-08-29T10:52:03.440Z,92.96
2022-08-29T10:53:03.400Z,92.91
2022-08-29T10:54:05.967Z,92.90
2022-08-29T10:55:03.397Z,92.93
2022-08-29T10:56:06.853Z,92.92
2022-08-29T10:57:04.364Z,92.96
2022-08-29T10:58:05.042Z,92.95
2022-08-29T10:59:03.344Z,92.96
2022-08-29T11:00:03.347Z,92.97
2022-08-29T11:01:08.450Z,92.90
2022-08-29T11:02:05.329Z,92.93
2022-08-29T11:03:03.330Z,92.86
2022-08-29T11:04:03.968Z,92.89
2022-08-29T11:05:03.297Z,92.87
2022-08-29T11:06:03.293Z,92.88
2022-08-29T11:07:03.277Z,92.90
2022-08-29T11:08:03.267Z,92.91
2022-08-29T11:09:03.267Z,92.90
2022-08-29T11:10:03.345Z,92.95
2022-08-29T11:11:03.245Z,92.96
2022-08-29T11:12:03.235Z,92.93
2022-08-29T11:13:03.224Z,92.96
2022-08-29T11:14:05.747Z,92.94
2022-08-29T11:15:04.255Z,92.94
2022-08-29T11:16:03.270Z,92.98
2022-08-29T11:17:03.504Z,92.94
2022-08-29T11:18:03.193Z,92.94
2022-08-29T11:19:03.184Z,92.91
2022-08-29T11:20:03.186Z,92.93
2022-08-29T11:21:03.174Z,92.92
2022-08-29T11:22:03.188Z,92.98
2022-08-29T11:23:03.157Z,92.94
2022-08-29T11:24:04.050Z,92.94
2022-08-29T11:25:04.981Z,92.93
2022-08-29T11:26:03.138Z,92.94
2022-08-29T11:27:03.120Z,92.93
2022-08-29T11:28:03.121Z,92.90
2022-08-29T11:29:03.114Z,92.94
2022-08-29T11:30:03.179Z,92.93
2022-08-29T11:31:03.160Z,92.98
2022-08-29T11:32:03.103Z,92.99
2022-08-29T11:33:03.077Z,92.98
2022-08-29T11:34:03.125Z,92.99
2022-08-29T11:35:03.069Z,92.95
2022-08-29T11:36:05.041Z,92.94
2022-08-29T11:37:04.055Z,92.99
2022-08-29T11:38:03.038Z,92.95
2022-08-29T11:39:03.034Z,92.93
2022-08-29T11:40:03.060Z,92.97
2022-08-29T11:42:05.028Z,92.92
2022-08-29T11:43:03.002Z,92.86
2022-08-29T11:44:04.003Z,92.92
2022-08-29T11:45:02.993Z,92.89
2022-08-29T11:46:02.976Z,92.91
2022-08-29T11:47:03.062Z,92.93
2022-08-29T11:48:02.960Z,92.98
2022-08-29T11:49:02.994Z,92.94
2022-08-29T11:50:02.991Z,92.97
2022-08-29T11:51:02.936Z,92.92
2022-08-29T11:52:02.934Z,92.97
2022-08-29T11:53:02.918Z,92.97
2022-08-29T11:54:02.918Z,92.93
2022-08-29T11:55:03.516Z,92.93
2022-08-29T11:56:02.911Z,92.98
2022-08-29T11:57:02.892Z,92.98
2022-08-29T11:58:05.728Z,92.97
2022-08-29T11:59:03.900Z,92.93
2022-08-29T12:00:02.910Z,92.91
2022-08-29T12:01:02.854Z,92.93
2022-08-29T12:02:02.938Z,92.92
2022-08-29T12:03:07.284Z,92.91
2022-08-29T12:04:03.851Z,92.91
2022-08-29T12:05:02.861Z,92.93
2022-08-29T12:06:02.818Z,92.89
2022-08-29T12:07:02.809Z,92.88
2022-08-29T12:08:26.332Z,92.91
2022-08-29T12:09:07.136Z,92.88
2022-08-29T12:10:03.802Z,92.90
2022-08-29T12:11:02.786Z,92.89
2022-08-29T12:12:02.807Z,92.89
2022-08-29T12:13:02.768Z,92.92
2022-08-29T12:14:02.752Z,92.91
2022-08-29T12:15:02.764Z,92.86
2022-08-29T12:16:02.786Z,92.87
2022-08-29T12:17:02.761Z,92.89
2022-08-29T12:18:04.523Z,92.89
2022-08-29T12:19:03.759Z,92.88
2022-08-29T12:20:02.847Z,92.86
2022-08-29T12:21:03.506Z,92.91
2022-08-29T12:22:02.714Z,92.84
2022-08-29T12:23:02.692Z,92.82
2022-08-29T12:24:02.682Z,92.84
2022-08-29T12:25:02.713Z,92.86
2022-08-29T12:26:21.923Z,92.81
2022-08-29T12:27:04.655Z,92.91
2022-08-29T12:28:02.703Z,92.83
2022-08-29T12:29:02.634Z,92.82
2022-08-29T12:30:03.629Z,92.84
2022-08-29T12:31:02.643Z,92.84
2022-08-29T12:32:18.803Z,92.83
2022-08-29T12:33:04.612Z,92.83
2022-08-29T12:34:02.600Z,92.84
2022-08-29T12:35:02.615Z,92.90
2022-08-29T12:36:02.604Z,92.84
2022-08-29T12:37:02.591Z,92.83
2022-08-29T12:38:03.236Z,92.83
2022-08-29T12:39:03.505Z,92.83
2022-08-29T12:40:02.672Z,92.84
2022-08-29T12:41:02.552Z,92.81
2022-08-29T12:42:02.557Z,92.84
2022-08-29T12:43:02.536Z,92.81
2022-08-29T12:44:03.958Z,92.80
2022-08-29T12:45:02.531Z,92.79
2022-08-29T12:46:02.512Z,92.76
2022-08-29T12:47:02.702Z,92.80
2022-08-29T12:48:02.513Z,92.76
2022-08-29T12:49:02.490Z,92.79
2022-08-29T12:50:02.477Z,92.75
2022-08-29T12:51:02.462Z,92.81
2022-08-29T12:52:02.464Z,92.80
2022-08-29T12:53:02.460Z,92.77
2022-08-29T12:54:02.446Z,92.78
2022-08-29T12:55:03.020Z,92.79
2022-08-29T12:56:02.425Z,92.81
2022-08-29T12:57:03.011Z,92.78
2022-08-29T12:58:02.441Z,92.81